sensor_id;sensor_type;location;lat;lon;timestamp;P1;durP1;ratioP1;P2;durP2;ratioP2
62479;SDS011;48526;48.846;2.322;2022-11-25T00:00:15;2.00;;;2.00;;
62479;SDS011;48526;48.846;2.322;2022-11-25T00:02:41;3.75;;;2.25;;
62479;SDS011;48526;48.846;2.322;2022-11-25T00:05:08;4.25;;;1.75;;
62479;SDS011;48526;48.846;2.322;2022-11-25T00:07:36;3.75;;;3.75;;
62479;SDS011;48526;48.846;2.322;2022-11-25T00:10:03;3.50;;;3.00;;
62479;SDS011;48526;48.846;2.322;2022-11-25T00:12:29;6.00;;;2.75;;
62479;SDS011;48526;48.846;2.322;2022-11-25T00:14:55;5.00;;;5.00;;
62479;SDS011;48526;48.846;2.322;2022-11-25T00:17:20;6.50;;;3.50;;
62479;SDS011;48526;48.846;2.322;2022-11-25T00:19:45;3.00;;;1.25;;
62479;SDS011;48526;48.846;2.322;2022-11-25T00:22:13;4.25;;;3.25;;
62479;SDS011;48526;48.846;2.322;2022-11-25T00:24:38;4.00;;;2.00;;
62479;SDS011;48526;48.846;2.322;2022-11-25T00:27:04;2.00;;;2.00;;
62479;SDS011;48526;48.846;2.322;2022-11-25T00:29:29;2.00;;;2.00;;
62479;SDS011;48526;48.846;2.322;2022-11-25T05:01:25;6.25;;;3.00;;
62479;SDS011;48526;48.846;2.322;2022-11-25T05:03:50;2.50;;;2.00;;
62479;SDS011;48526;48.846;2.322;2022-11-25T05:06:16;2.00;;;1.00;;
62479;SDS011;48526;48.846;2.322;2022-11-25T05:08:41;2.75;;;2.00;;
62479;SDS011;48526;48.846;2.322;2022-11-25T05:11:07;3.50;;;2.75;;
62479;SDS011;48526;48.846;2.322;2022-11-25T05:13:32;5.25;;;3.75;;
62479;SDS011;48526;48.846;2.322;2022-11-25T05:15:58;8.25;;;3.75;;
62479;SDS011;48526;48.846;2.322;2022-11-25T05:18:24;7.00;;;4.50;;
62479;SDS011;48526;48.846;2.322;2022-11-25T05:20:49;7.25;;;4.00;;
62479;SDS011;48526;48.846;2.322;2022-11-25T05:23:15;2.50;;;2.00;;
62479;SDS011;48526;48.846;2.322;2022-11-25T05:25:40;3.00;;;2.75;;
62479;SDS011;48526;48.846;2.322;2022-11-25T05:28:05;6.75;;;3.25;;
62479;SDS011;48526;48.846;2.322;2022-11-25T05:30:32;5.75;;;2.25;;
62479;SDS011;48526;48.846;2.322;2022-11-25T05:32:57;6.00;;;2.75;;
62479;SDS011;48526;48.846;2.322;2022-11-25T05:35:23;7.00;;;3.00;;
62479;SDS011;48526;48.846;2.322;2022-11-25T05:37:48;6.25;;;3.50;;
62479;SDS011;48526;48.846;2.322;2022-11-25T05:40:15;7.50;;;3.75;;
62479;SDS011;48526;48.846;2.322;2022-11-25T05:42:40;4.50;;;3.00;;
62479;SDS011;48526;48.846;2.322;2022-11-25T05:45:06;5.50;;;2.00;;
62479;SDS011;48526;48.846;2.322;2022-11-25T05:47:32;4.50;;;4.50;;
62479;SDS011;48526;48.846;2.322;2022-11-25T05:49:57;2.50;;;2.50;;
62479;SDS011;48526;48.846;2.322;2022-11-25T05:52:23;5.50;;;1.50;;
62479;SDS011;48526;48.846;2.322;2022-11-25T05:54:48;7.25;;;3.00;;
62479;SDS011;48526;48.846;2.322;2022-11-25T05:57:14;4.25;;;2.50;;
62479;SDS011;48526;48.846;2.322;2022-11-25T05:59:46;2.25;;;1.75;;
62479;SDS011;48526;48.846;2.322;2022-11-25T06:02:12;3.25;;;3.25;;
62479;SDS011;48526;48.846;2.322;2022-11-25T06:04:37;4.25;;;4.25;;
62479;SDS011;48526;48.846;2.322;2022-11-25T06:07:03;3.25;;;2.50;;
62479;SDS011;48526;48.846;2.322;2022-11-25T06:09:28;7.00;;;2.25;;
62479;SDS011;48526;48.846;2.322;2022-11-25T06:11:54;3.00;;;2.00;;
62479;SDS011;48526;48.846;2.322;2022-11-25T06:14:19;4.00;;;3.00;;
62479;SDS011;48526;48.846;2.322;2022-11-25T06:16:45;8.50;;;2.75;;
62479;SDS011;48526;48.846;2.322;2022-11-25T06:19:10;4.50;;;3.00;;
62479;SDS011;48526;48.846;2.322;2022-11-25T06:21:36;4.25;;;3.00;;
62479;SDS011;48526;48.846;2.322;2022-11-25T06:24:02;6.00;;;3.00;;
62479;SDS011;48526;48.846;2.322;2022-11-25T06:26:27;6.25;;;4.50;;
62479;SDS011;48526;48.846;2.322;2022-11-25T06:28:53;2.25;;;1.25;;
62479;SDS011;48526;48.846;2.322;2022-11-25T06:31:37;3.25;;;2.00;;
62479;SDS011;48526;48.846;2.322;2022-11-25T06:37:25;3.50;;;3.50;;
62479;SDS011;48526;48.846;2.322;2022-11-25T06:39:51;5.00;;;3.25;;
62479;SDS011;48526;48.846;2.322;2022-11-25T06:42:16;6.50;;;3.75;;
62479;SDS011;48526;48.846;2.322;2022-11-25T06:44:47;4.00;;;4.00;;
62479;SDS011;48526;48.846;2.322;2022-11-25T06:47:12;11.00;;;6.25;;
62479;SDS011;48526;48.846;2.322;2022-11-25T06:49:38;5.50;;;3.50;;
62479;SDS011;48526;48.846;2.322;2022-11-25T06:52:03;6.50;;;2.25;;
62479;SDS011;48526;48.846;2.322;2022-11-25T06:54:29;6.75;;;6.00;;
62479;SDS011;48526;48.846;2.322;2022-11-25T06:56:54;5.25;;;3.75;;
62479;SDS011;48526;48.846;2.322;2022-11-25T06:59:20;6.75;;;3.00;;
62479;SDS011;48526;48.846;2.322;2022-11-25T07:01:45;8.25;;;3.50;;
62479;SDS011;48526;48.846;2.322;2022-11-25T07:04:14;3.00;;;3.00;;
62479;SDS011;48526;48.846;2.322;2022-11-25T07:06:39;3.25;;;3.25;;
62479;SDS011;48526;48.846;2.322;2022-11-25T07:09:04;6.75;;;4.00;;
62479;SDS011;48526;48.846;2.322;2022-11-25T07:11:34;6.00;;;6.00;;
62479;SDS011;48526;48.846;2.322;2022-11-25T07:14:02;8.25;;;3.75;;
62479;SDS011;48526;48.846;2.322;2022-11-25T07:16:29;2.25;;;2.00;;
62479;SDS011;48526;48.846;2.322;2022-11-25T07:18:57;5.50;;;3.00;;
62479;SDS011;48526;48.846;2.322;2022-11-25T07:21:23;8.50;;;4.25;;
62479;SDS011;48526;48.846;2.322;2022-11-25T07:23:49;6.00;;;6.00;;
62479;SDS011;48526;48.846;2.322;2022-11-25T07:26:19;6.75;;;3.75;;
62479;SDS011;48526;48.846;2.322;2022-11-25T07:28:49;7.00;;;3.50;;
62479;SDS011;48526;48.846;2.322;2022-11-25T07:33:46;7.50;;;7.00;;
62479;SDS011;48526;48.846;2.322;2022-11-25T07:36:12;7.00;;;3.75;;
62479;SDS011;48526;48.846;2.322;2022-11-25T07:38:38;8.50;;;6.50;;
62479;SDS011;48526;48.846;2.322;2022-11-25T07:41:09;7.00;;;6.00;;
62479;SDS011;48526;48.846;2.322;2022-11-25T07:43:36;8.25;;;4.25;;
62479;SDS011;48526;48.846;2.322;2022-11-25T07:46:14;6.00;;;4.50;;
62479;SDS011;48526;48.846;2.322;2022-11-25T07:48:48;7.25;;;5.50;;
62479;SDS011;48526;48.846;2.322;2022-11-25T07:51:21;6.00;;;3.25;;
62479;SDS011;48526;48.846;2.322;2022-11-25T07:53:52;11.50;;;6.25;;
62479;SDS011;48526;48.846;2.322;2022-11-25T07:56:18;5.75;;;3.75;;
62479;SDS011;48526;48.846;2.322;2022-11-25T07:58:44;6.25;;;5.50;;
62479;SDS011;48526;48.846;2.322;2022-11-25T08:01:10;2.25;;;1.25;;
62479;SDS011;48526;48.846;2.322;2022-11-25T08:03:38;6.00;;;3.00;;
62479;SDS011;48526;48.846;2.322;2022-11-25T08:06:08;6.00;;;4.50;;
62479;SDS011;48526;48.846;2.322;2022-11-25T08:08:37;3.50;;;3.50;;
62479;SDS011;48526;48.846;2.322;2022-11-25T08:11:11;4.00;;;4.00;;
62479;SDS011;48526;48.846;2.322;2022-11-25T08:13:37;3.00;;;2.75;;
62479;SDS011;48526;48.846;2.322;2022-11-25T08:16:03;5.00;;;5.00;;
62479;SDS011;48526;48.846;2.322;2022-11-25T08:18:30;5.00;;;4.00;;
62479;SDS011;48526;48.846;2.322;2022-11-25T08:20:59;8.00;;;6.50;;
62479;SDS011;48526;48.846;2.322;2022-11-25T08:23:26;7.25;;;3.00;;
62479;SDS011;48526;48.846;2.322;2022-11-25T08:25:51;9.25;;;5.50;;
62479;SDS011;48526;48.846;2.322;2022-11-25T08:28:17;8.25;;;6.00;;
62479;SDS011;48526;48.846;2.322;2022-11-25T08:30:42;7.25;;;5.50;;
62479;SDS011;48526;48.846;2.322;2022-11-25T08:33:08;7.75;;;6.25;;
62479;SDS011;48526;48.846;2.322;2022-11-25T08:35:33;7.25;;;4.00;;
62479;SDS011;48526;48.846;2.322;2022-11-25T08:38:02;7.75;;;5.50;;
62479;SDS011;48526;48.846;2.322;2022-11-25T08:40:32;7.75;;;5.75;;
62479;SDS011;48526;48.846;2.322;2022-11-25T08:42:58;6.50;;;3.50;;
62479;SDS011;48526;48.846;2.322;2022-11-25T08:45:24;7.00;;;3.75;;
62479;SDS011;48526;48.846;2.322;2022-11-25T08:47:49;9.50;;;8.00;;
62479;SDS011;48526;48.846;2.322;2022-11-25T08:50:15;6.75;;;5.50;;
62479;SDS011;48526;48.846;2.322;2022-11-25T08:52:40;6.25;;;3.75;;
62479;SDS011;48526;48.846;2.322;2022-11-25T08:55:06;6.75;;;4.50;;
62479;SDS011;48526;48.846;2.322;2022-11-25T08:57:33;8.00;;;6.75;;
62479;SDS011;48526;48.846;2.322;2022-11-25T08:59:58;10.00;;;6.50;;
62479;SDS011;48526;48.846;2.322;2022-11-25T09:02:24;6.75;;;6.75;;
62479;SDS011;48526;48.846;2.322;2022-11-25T09:04:49;11.25;;;6.00;;
62479;SDS011;48526;48.846;2.322;2022-11-25T09:07:15;6.75;;;3.50;;
62479;SDS011;48526;48.846;2.322;2022-11-25T09:09:40;7.75;;;6.50;;
62479;SDS011;48526;48.846;2.322;2022-11-25T09:12:06;8.00;;;5.25;;
62479;SDS011;48526;48.846;2.322;2022-11-25T09:14:31;8.75;;;6.00;;
62479;SDS011;48526;48.846;2.322;2022-11-25T09:16:57;8.00;;;6.50;;
62479;SDS011;48526;48.846;2.322;2022-11-25T09:19:22;3.25;;;3.00;;
62479;SDS011;48526;48.846;2.322;2022-11-25T09:21:48;8.50;;;4.00;;
62479;SDS011;48526;48.846;2.322;2022-11-25T09:24:13;5.50;;;4.00;;
62479;SDS011;48526;48.846;2.322;2022-11-25T09:26:39;7.25;;;6.00;;
62479;SDS011;48526;48.846;2.322;2022-11-25T09:29:08;7.25;;;6.00;;
62479;SDS011;48526;48.846;2.322;2022-11-25T09:31:34;5.00;;;3.75;;
62479;SDS011;48526;48.846;2.322;2022-11-25T09:34:00;8.00;;;6.75;;
62479;SDS011;48526;48.846;2.322;2022-11-25T09:36:25;7.50;;;5.00;;
62479;SDS011;48526;48.846;2.322;2022-11-25T09:38:51;10.50;;;6.00;;
62479;SDS011;48526;48.846;2.322;2022-11-25T09:44:16;10.75;;;5.00;;
62479;SDS011;48526;48.846;2.322;2022-11-25T09:52:43;6.25;;;6.00;;
62479;SDS011;48526;48.846;2.322;2022-11-25T09:55:16;5.00;;;4.00;;
62479;SDS011;48526;48.846;2.322;2022-11-25T10:00:17;8.75;;;5.00;;
62479;SDS011;48526;48.846;2.322;2022-11-25T10:05:54;7.25;;;3.75;;
62479;SDS011;48526;48.846;2.322;2022-11-25T10:08:24;8.50;;;6.75;;
62479;SDS011;48526;48.846;2.322;2022-11-25T10:11:06;16.50;;;11.50;;
62479;SDS011;48526;48.846;2.322;2022-11-25T10:13:49;6.00;;;4.00;;
62479;SDS011;48526;48.846;2.322;2022-11-25T10:19:04;4.00;;;4.00;;
62479;SDS011;48526;48.846;2.322;2022-11-25T10:21:35;9.00;;;6.75;;
62479;SDS011;48526;48.846;2.322;2022-11-25T10:24:01;6.75;;;6.00;;
62479;SDS011;48526;48.846;2.322;2022-11-25T10:26:28;7.75;;;6.25;;
62479;SDS011;48526;48.846;2.322;2022-11-25T10:31:37;11.50;;;6.50;;
62479;SDS011;48526;48.846;2.322;2022-11-25T10:34:17;7.25;;;3.75;;
62479;SDS011;48526;48.846;2.322;2022-11-25T10:36:48;7.00;;;7.00;;
62479;SDS011;48526;48.846;2.322;2022-11-25T10:44:38;6.50;;;3.50;;
62479;SDS011;48526;48.846;2.322;2022-11-25T10:49:59;7.25;;;6.00;;
62479;SDS011;48526;48.846;2.322;2022-11-25T10:52:34;8.00;;;4.00;;
62479;SDS011;48526;48.846;2.322;2022-11-25T10:55:17;7.00;;;6.50;;
62479;SDS011;48526;48.846;2.322;2022-11-25T10:57:44;4.75;;;3.50;;
62479;SDS011;48526;48.846;2.322;2022-11-25T11:03:14;4.00;;;4.00;;
62479;SDS011;48526;48.846;2.322;2022-11-25T11:05:46;8.50;;;4.00;;
62479;SDS011;48526;48.846;2.322;2022-11-25T11:08:20;8.00;;;6.00;;
62479;SDS011;48526;48.846;2.322;2022-11-25T11:13:39;8.25;;;5.50;;
62479;SDS011;48526;48.846;2.322;2022-11-25T11:16:19;7.00;;;4.00;;
62479;SDS011;48526;48.846;2.322;2022-11-25T11:18:46;5.50;;;5.50;;
62479;SDS011;48526;48.846;2.322;2022-11-25T11:21:28;10.75;;;5.50;;
62479;SDS011;48526;48.846;2.322;2022-11-25T11:23:58;7.75;;;5.00;;
62479;SDS011;48526;48.846;2.322;2022-11-25T11:28:57;7.50;;;6.00;;
62479;SDS011;48526;48.846;2.322;2022-11-25T11:31:26;4.75;;;3.75;;
62479;SDS011;48526;48.846;2.322;2022-11-25T11:34:02;5.50;;;2.25;;
62479;SDS011;48526;48.846;2.322;2022-11-25T11:42:02;4.00;;;4.00;;
62479;SDS011;48526;48.846;2.322;2022-11-25T12:04:07;11.00;;;6.00;;
62479;SDS011;48526;48.846;2.322;2022-11-25T12:07:01;6.25;;;4.00;;
62479;SDS011;48526;48.846;2.322;2022-11-25T12:09:52;7.50;;;3.25;;
62479;SDS011;48526;48.846;2.322;2022-11-25T12:12:21;7.00;;;2.75;;
62479;SDS011;48526;48.846;2.322;2022-11-25T12:15:00;11.25;;;7.00;;
62479;SDS011;48526;48.846;2.322;2022-11-25T12:17:40;18.75;;;10.50;;
62479;SDS011;48526;48.846;2.322;2022-11-25T12:22:58;8.25;;;3.75;;
62479;SDS011;48526;48.846;2.322;2022-11-25T12:25:29;4.75;;;2.50;;
62479;SDS011;48526;48.846;2.322;2022-11-25T12:28:16;4.75;;;4.25;;
62479;SDS011;48526;48.846;2.322;2022-11-25T12:30:57;7.00;;;4.75;;
62479;SDS011;48526;48.846;2.322;2022-11-25T12:33:40;8.50;;;4.00;;
62479;SDS011;48526;48.846;2.322;2022-11-25T12:36:15;4.75;;;4.25;;
62479;SDS011;48526;48.846;2.322;2022-11-25T12:38:58;5.00;;;4.75;;
62479;SDS011;48526;48.846;2.322;2022-11-25T12:44:13;6.50;;;6.50;;
62479;SDS011;48526;48.846;2.322;2022-11-25T12:46:48;9.00;;;3.75;;
62479;SDS011;48526;48.846;2.322;2022-11-25T12:49:28;8.25;;;3.00;;
62479;SDS011;48526;48.846;2.322;2022-11-25T12:52:07;4.75;;;2.50;;
62479;SDS011;48526;48.846;2.322;2022-11-25T12:57:25;6.75;;;3.25;;
62479;SDS011;48526;48.846;2.322;2022-11-25T13:00:18;4.25;;;4.00;;
62479;SDS011;48526;48.846;2.322;2022-11-25T13:11:21;7.25;;;7.25;;
62479;SDS011;48526;48.846;2.322;2022-11-25T13:16:50;12.00;;;5.00;;
62479;SDS011;48526;48.846;2.322;2022-11-25T13:19:17;4.50;;;4.50;;
62479;SDS011;48526;48.846;2.322;2022-11-25T13:24:46;7.50;;;3.25;;
62479;SDS011;48526;48.846;2.322;2022-11-25T13:29:55;7.50;;;6.75;;
62479;SDS011;48526;48.846;2.322;2022-11-25T13:32:31;4.50;;;3.75;;
62479;SDS011;48526;48.846;2.322;2022-11-25T13:37:53;5.75;;;4.00;;
62479;SDS011;48526;48.846;2.322;2022-11-25T13:42:47;4.00;;;2.00;;
62479;SDS011;48526;48.846;2.322;2022-11-25T13:48:30;3.00;;;3.00;;
62479;SDS011;48526;48.846;2.322;2022-11-25T13:53:41;3.25;;;3.00;;
62479;SDS011;48526;48.846;2.322;2022-11-25T13:56:24;3.50;;;2.50;;
62479;SDS011;48526;48.846;2.322;2022-11-25T14:04:11;3.50;;;0.50;;
62479;SDS011;48526;48.846;2.322;2022-11-25T14:06:53;2.75;;;2.75;;
62479;SDS011;48526;48.846;2.322;2022-11-25T14:21:39;1.75;;;1.75;;
62479;SDS011;48526;48.846;2.322;2022-11-25T14:24:45;6.00;;;4.00;;
62479;SDS011;48526;48.846;2.322;2022-11-25T14:29:54;3.50;;;3.00;;
62479;SDS011;48526;48.846;2.322;2022-11-25T14:35:02;4.75;;;4.25;;
62479;SDS011;48526;48.846;2.322;2022-11-25T14:37:37;6.75;;;4.00;;
62479;SDS011;48526;48.846;2.322;2022-11-25T14:40:19;7.75;;;5.00;;
62479;SDS011;48526;48.846;2.322;2022-11-25T14:42:47;2.25;;;1.75;;
62479;SDS011;48526;48.846;2.322;2022-11-25T14:45:26;4.00;;;3.75;;
62479;SDS011;48526;48.846;2.322;2022-11-25T14:47:54;4.75;;;2.50;;
62479;SDS011;48526;48.846;2.322;2022-11-25T14:50:19;9.00;;;4.00;;
62479;SDS011;48526;48.846;2.322;2022-11-25T14:52:46;2.50;;;1.00;;
62479;SDS011;48526;48.846;2.322;2022-11-25T14:55:13;4.00;;;2.50;;
62479;SDS011;48526;48.846;2.322;2022-11-25T14:57:48;3.50;;;2.75;;
62479;SDS011;48526;48.846;2.322;2022-11-25T15:00:14;5.00;;;2.50;;
62479;SDS011;48526;48.846;2.322;2022-11-25T15:05:34;4.25;;;3.25;;
62479;SDS011;48526;48.846;2.322;2022-11-25T15:08:02;3.50;;;3.00;;
62479;SDS011;48526;48.846;2.322;2022-11-25T15:10:38;2.25;;;2.25;;
62479;SDS011;48526;48.846;2.322;2022-11-25T15:13:19;7.50;;;3.75;;
62479;SDS011;48526;48.846;2.322;2022-11-25T15:15:49;6.00;;;4.75;;
62479;SDS011;48526;48.846;2.322;2022-11-25T15:18:19;6.00;;;3.75;;
62479;SDS011;48526;48.846;2.322;2022-11-25T15:20:56;4.25;;;1.50;;
62479;SDS011;48526;48.846;2.322;2022-11-25T15:23:30;3.75;;;1.00;;
62479;SDS011;48526;48.846;2.322;2022-11-25T15:26:00;4.75;;;2.00;;
62479;SDS011;48526;48.846;2.322;2022-11-25T15:28:32;7.25;;;3.00;;
62479;SDS011;48526;48.846;2.322;2022-11-25T15:30:59;3.75;;;3.00;;
62479;SDS011;48526;48.846;2.322;2022-11-25T15:33:29;8.00;;;5.75;;
62479;SDS011;48526;48.846;2.322;2022-11-25T15:35:55;7.00;;;4.00;;
62479;SDS011;48526;48.846;2.322;2022-11-25T15:41:13;4.00;;;3.00;;
62479;SDS011;48526;48.846;2.322;2022-11-25T15:43:46;7.75;;;4.25;;
62479;SDS011;48526;48.846;2.322;2022-11-25T15:46:13;3.00;;;3.00;;
62479;SDS011;48526;48.846;2.322;2022-11-25T15:48:46;7.50;;;5.00;;
62479;SDS011;48526;48.846;2.322;2022-11-25T15:56:53;5.00;;;2.00;;
62479;SDS011;48526;48.846;2.322;2022-11-25T16:02:34;3.00;;;2.50;;
62479;SDS011;48526;48.846;2.322;2022-11-25T16:10:19;3.50;;;3.50;;
62479;SDS011;48526;48.846;2.322;2022-11-25T16:15:46;7.75;;;4.00;;
62479;SDS011;48526;48.846;2.322;2022-11-25T16:18:14;4.25;;;4.00;;
62479;SDS011;48526;48.846;2.322;2022-11-25T16:20:51;14.00;;;9.00;;
62479;SDS011;48526;48.846;2.322;2022-11-25T16:23:19;7.00;;;4.00;;
62479;SDS011;48526;48.846;2.322;2022-11-25T16:25:50;5.25;;;4.00;;
62479;SDS011;48526;48.846;2.322;2022-11-25T16:28:22;5.50;;;4.50;;
62479;SDS011;48526;48.846;2.322;2022-11-25T16:30:48;9.50;;;7.75;;
62479;SDS011;48526;48.846;2.322;2022-11-25T16:33:15;5.50;;;4.25;;
62479;SDS011;48526;48.846;2.322;2022-11-25T16:35:40;4.50;;;4.50;;
62479;SDS011;48526;48.846;2.322;2022-11-25T16:38:06;7.25;;;5.00;;
62479;SDS011;48526;48.846;2.322;2022-11-25T16:40:34;7.00;;;4.00;;
62479;SDS011;48526;48.846;2.322;2022-11-25T16:43:02;8.25;;;8.00;;
62479;SDS011;48526;48.846;2.322;2022-11-25T16:45:28;8.00;;;5.75;;
62479;SDS011;48526;48.846;2.322;2022-11-25T16:47:54;4.75;;;4.00;;
62479;SDS011;48526;48.846;2.322;2022-11-25T16:50:20;4.75;;;4.00;;
62479;SDS011;48526;48.846;2.322;2022-11-25T16:52:46;4.25;;;3.25;;
62479;SDS011;48526;48.846;2.322;2022-11-25T16:55:12;8.00;;;4.00;;
62479;SDS011;48526;48.846;2.322;2022-11-25T16:57:38;9.50;;;6.25;;
62479;SDS011;48526;48.846;2.322;2022-11-25T17:00:06;7.50;;;5.00;;
62479;SDS011;48526;48.846;2.322;2022-11-25T17:02:35;6.00;;;3.75;;
62479;SDS011;48526;48.846;2.322;2022-11-25T17:05:20;5.50;;;3.75;;
62479;SDS011;48526;48.846;2.322;2022-11-25T17:07:49;10.00;;;6.75;;
62479;SDS011;48526;48.846;2.322;2022-11-25T17:10:15;11.75;;;5.00;;
62479;SDS011;48526;48.846;2.322;2022-11-25T17:12:40;17.50;;;12.00;;
62479;SDS011;48526;48.846;2.322;2022-11-25T17:15:12;10.00;;;8.25;;
62479;SDS011;48526;48.846;2.322;2022-11-25T17:17:40;19.00;;;14.75;;
62479;SDS011;48526;48.846;2.322;2022-11-25T17:20:10;16.50;;;10.25;;
62479;SDS011;48526;48.846;2.322;2022-11-25T17:22:39;16.25;;;9.75;;
62479;SDS011;48526;48.846;2.322;2022-11-25T17:25:04;5.00;;;3.25;;
62479;SDS011;48526;48.846;2.322;2022-11-25T17:27:32;4.75;;;4.00;;
62479;SDS011;48526;48.846;2.322;2022-11-25T17:29:59;7.00;;;4.25;;
62479;SDS011;48526;48.846;2.322;2022-11-25T17:32:27;12.75;;;7.50;;
62479;SDS011;48526;48.846;2.322;2022-11-25T17:34:52;7.75;;;5.00;;
62479;SDS011;48526;48.846;2.322;2022-11-25T17:37:19;8.75;;;7.00;;
62479;SDS011;48526;48.846;2.322;2022-11-25T17:39:52;7.00;;;5.00;;
62479;SDS011;48526;48.846;2.322;2022-11-25T17:42:21;10.00;;;6.50;;
62479;SDS011;48526;48.846;2.322;2022-11-25T17:44:50;8.50;;;6.00;;
62479;SDS011;48526;48.846;2.322;2022-11-25T17:47:16;9.25;;;6.50;;
62479;SDS011;48526;48.846;2.322;2022-11-25T17:49:41;13.00;;;8.25;;
62479;SDS011;48526;48.846;2.322;2022-11-25T17:52:07;12.75;;;11.25;;
62479;SDS011;48526;48.846;2.322;2022-11-25T17:54:34;3.25;;;1.00;;
62479;SDS011;48526;48.846;2.322;2022-11-25T17:56:59;8.50;;;5.50;;
62479;SDS011;48526;48.846;2.322;2022-11-25T17:59:26;10.00;;;8.50;;
62479;SDS011;48526;48.846;2.322;2022-11-25T18:01:53;10.75;;;7.75;;
62479;SDS011;48526;48.846;2.322;2022-11-25T18:04:29;6.00;;;5.50;;
62479;SDS011;48526;48.846;2.322;2022-11-25T18:06:59;12.75;;;10.00;;
62479;SDS011;48526;48.846;2.322;2022-11-25T18:09:24;10.00;;;8.25;;
62479;SDS011;48526;48.846;2.322;2022-11-25T18:11:53;11.25;;;7.25;;
62479;SDS011;48526;48.846;2.322;2022-11-25T18:14:31;13.00;;;8.00;;
62479;SDS011;48526;48.846;2.322;2022-11-25T18:17:00;13.75;;;11.75;;
62479;SDS011;48526;48.846;2.322;2022-11-25T18:19:27;10.00;;;7.25;;
62479;SDS011;48526;48.846;2.322;2022-11-25T18:21:52;11.50;;;9.25;;
62479;SDS011;48526;48.846;2.322;2022-11-25T18:24:23;8.75;;;7.50;;
62479;SDS011;48526;48.846;2.322;2022-11-25T18:26:51;9.75;;;6.00;;
62479;SDS011;48526;48.846;2.322;2022-11-25T18:29:22;13.25;;;8.00;;
62479;SDS011;48526;48.846;2.322;2022-11-25T18:31:49;8.75;;;8.75;;
62479;SDS011;48526;48.846;2.322;2022-11-25T18:34:16;7.00;;;5.50;;
62479;SDS011;48526;48.846;2.322;2022-11-25T18:36:42;6.25;;;6.25;;
62479;SDS011;48526;48.846;2.322;2022-11-25T18:39:09;10.00;;;8.00;;
62479;SDS011;48526;48.846;2.322;2022-11-25T18:41:35;12.75;;;12.75;;
62479;SDS011;48526;48.846;2.322;2022-11-25T18:44:04;12.50;;;8.00;;
62479;SDS011;48526;48.846;2.322;2022-11-25T18:46:34;13.25;;;8.50;;
62479;SDS011;48526;48.846;2.322;2022-11-25T18:49:11;11.50;;;9.00;;
62479;SDS011;48526;48.846;2.322;2022-11-25T18:51:42;10.00;;;9.25;;
62479;SDS011;48526;48.846;2.322;2022-11-25T18:54:09;12.00;;;9.00;;
62479;SDS011;48526;48.846;2.322;2022-11-25T18:56:41;9.75;;;9.00;;
62479;SDS011;48526;48.846;2.322;2022-11-25T18:59:18;19.75;;;14.00;;
62479;SDS011;48526;48.846;2.322;2022-11-25T19:02:39;14.75;;;13.00;;
62479;SDS011;48526;48.846;2.322;2022-11-25T19:05:12;13.00;;;9.00;;
62479;SDS011;48526;48.846;2.322;2022-11-25T19:07:39;15.50;;;13.00;;
62479;SDS011;48526;48.846;2.322;2022-11-25T19:10:05;17.75;;;12.75;;
62479;SDS011;48526;48.846;2.322;2022-11-25T19:12:31;9.50;;;9.50;;
62479;SDS011;48526;48.846;2.322;2022-11-25T19:14:58;14.50;;;10.25;;
62479;SDS011;48526;48.846;2.322;2022-11-25T19:17:23;12.25;;;10.00;;
62479;SDS011;48526;48.846;2.322;2022-11-25T19:19:57;10.75;;;9.00;;
62479;SDS011;48526;48.846;2.322;2022-11-25T19:22:23;12.50;;;10.75;;
62479;SDS011;48526;48.846;2.322;2022-11-25T19:24:48;17.75;;;16.75;;
62479;SDS011;48526;48.846;2.322;2022-11-25T19:27:16;21.50;;;17.25;;
62479;SDS011;48526;48.846;2.322;2022-11-25T19:29:43;18.75;;;17.00;;
62479;SDS011;48526;48.846;2.322;2022-11-25T19:32:31;28.25;;;23.25;;
62479;SDS011;48526;48.846;2.322;2022-11-25T19:34:56;17.00;;;15.25;;
62479;SDS011;48526;48.846;2.322;2022-11-25T19:37:23;20.75;;;15.00;;
62479;SDS011;48526;48.846;2.322;2022-11-25T19:39:49;17.00;;;16.00;;
62479;SDS011;48526;48.846;2.322;2022-11-25T19:42:15;15.50;;;12.75;;
62479;SDS011;48526;48.846;2.322;2022-11-25T19:44:41;14.75;;;14.50;;
62479;SDS011;48526;48.846;2.322;2022-11-25T19:47:20;17.75;;;14.50;;
62479;SDS011;48526;48.846;2.322;2022-11-25T19:49:47;15.75;;;13.25;;
62479;SDS011;48526;48.846;2.322;2022-11-25T19:52:18;16.25;;;15.00;;
62479;SDS011;48526;48.846;2.322;2022-11-25T19:54:45;22.25;;;21.00;;
62479;SDS011;48526;48.846;2.322;2022-11-25T19:57:14;20.00;;;14.25;;
62479;SDS011;48526;48.846;2.322;2022-11-25T19:59:41;24.75;;;18.75;;
62479;SDS011;48526;48.846;2.322;2022-11-25T20:02:14;22.50;;;13.75;;
62479;SDS011;48526;48.846;2.322;2022-11-25T20:04:41;23.50;;;19.75;;
62479;SDS011;48526;48.846;2.322;2022-11-25T20:07:09;24.75;;;18.25;;
62479;SDS011;48526;48.846;2.322;2022-11-25T20:09:41;22.00;;;17.75;;
62479;SDS011;48526;48.846;2.322;2022-11-25T20:12:40;19.50;;;16.25;;
62479;SDS011;48526;48.846;2.322;2022-11-25T20:15:08;19.50;;;15.75;;
62479;SDS011;48526;48.846;2.322;2022-11-25T20:18:02;24.25;;;20.25;;
62479;SDS011;48526;48.846;2.322;2022-11-25T20:20:32;23.75;;;15.00;;
62479;SDS011;48526;48.846;2.322;2022-11-25T20:23:04;19.50;;;14.25;;
62479;SDS011;48526;48.846;2.322;2022-11-25T20:25:46;26.75;;;19.00;;
62479;SDS011;48526;48.846;2.322;2022-11-25T20:28:17;18.50;;;17.00;;
62479;SDS011;48526;48.846;2.322;2022-11-25T20:30:46;24.50;;;20.75;;
62479;SDS011;48526;48.846;2.322;2022-11-25T20:33:17;18.50;;;15.25;;
62479;SDS011;48526;48.846;2.322;2022-11-25T20:35:47;21.50;;;19.00;;
62479;SDS011;48526;48.846;2.322;2022-11-25T20:38:24;18.00;;;15.50;;
62479;SDS011;48526;48.846;2.322;2022-11-25T20:40:59;22.25;;;20.50;;
62479;SDS011;48526;48.846;2.322;2022-11-25T20:43:31;26.75;;;20.50;;
62479;SDS011;48526;48.846;2.322;2022-11-25T20:46:01;32.50;;;25.25;;
62479;SDS011;48526;48.846;2.322;2022-11-25T20:48:28;23.00;;;19.50;;
62479;SDS011;48526;48.846;2.322;2022-11-25T20:51:16;31.25;;;21.00;;
62479;SDS011;48526;48.846;2.322;2022-11-25T20:54:05;25.00;;;19.75;;
62479;SDS011;48526;48.846;2.322;2022-11-25T20:56:44;23.75;;;17.75;;
62479;SDS011;48526;48.846;2.322;2022-11-25T20:59:20;18.25;;;15.25;;
62479;SDS011;48526;48.846;2.322;2022-11-25T21:01:48;22.50;;;19.75;;
62479;SDS011;48526;48.846;2.322;2022-11-25T21:04:14;22.00;;;19.75;;
62479;SDS011;48526;48.846;2.322;2022-11-25T21:06:39;18.50;;;16.00;;
62479;SDS011;48526;48.846;2.322;2022-11-25T21:09:08;20.25;;;14.25;;
62479;SDS011;48526;48.846;2.322;2022-11-25T21:11:44;17.00;;;14.25;;
62479;SDS011;48526;48.846;2.322;2022-11-25T21:14:11;25.25;;;16.75;;
62479;SDS011;48526;48.846;2.322;2022-11-25T21:16:38;18.50;;;17.00;;
62479;SDS011;48526;48.846;2.322;2022-11-25T21:19:04;18.25;;;15.75;;
62479;SDS011;48526;48.846;2.322;2022-11-25T21:21:30;15.50;;;13.25;;
62479;SDS011;48526;48.846;2.322;2022-11-25T21:24:02;24.25;;;16.00;;
62479;SDS011;48526;48.846;2.322;2022-11-25T21:26:34;25.00;;;19.50;;
62479;SDS011;48526;48.846;2.322;2022-11-25T21:29:12;16.75;;;12.75;;
62479;SDS011;48526;48.846;2.322;2022-11-25T21:31:42;14.00;;;13.50;;
62479;SDS011;48526;48.846;2.322;2022-11-25T21:34:10;22.00;;;19.50;;
62479;SDS011;48526;48.846;2.322;2022-11-25T21:36:37;24.25;;;19.00;;
62479;SDS011;48526;48.846;2.322;2022-11-25T21:39:06;20.25;;;17.50;;
62479;SDS011;48526;48.846;2.322;2022-11-25T21:41:34;24.00;;;15.75;;
62479;SDS011;48526;48.846;2.322;2022-11-25T21:44:00;18.00;;;16.25;;
62479;SDS011;48526;48.846;2.322;2022-11-25T21:46:31;18.00;;;15.50;;
62479;SDS011;48526;48.846;2.322;2022-11-25T21:49:09;20.75;;;15.00;;
62479;SDS011;48526;48.846;2.322;2022-11-25T21:51:38;21.50;;;17.75;;
62479;SDS011;48526;48.846;2.322;2022-11-25T21:54:25;18.00;;;16.50;;